createdAt,value
2022-08-07T00:11:20.781Z,23.426
2022-08-07T00:26:59.124Z,22.298
2022-08-07T00:42:08.432Z,22.096
2022-08-07T00:57:10.358Z,21.6
2022-08-07T01:12:28.458Z,21.98
2022-08-07T01:27:32.714Z,21.412
2022-08-07T01:42:37.551Z,24.218
2022-08-07T01:58:01.191Z,25.374
2022-08-07T02:13:08.835Z,26.096
2022-08-07T02:28:11.405Z,26.898
2022-08-07T02:43:13.371Z,26.386
2022-08-07T02:58:15.230Z,25.373
2022-08-07T03:13:19.781Z,21.168
2022-08-07T03:28:37.707Z,22.385
2022-08-07T03:43:56.746Z,24.633
2022-08-07T03:59:08.457Z,26.285
2022-08-07T04:14:37.998Z,24.284
2022-08-07T04:29:58.503Z,24.992
2022-08-07T04:45:08.092Z,24.855
2022-08-07T05:00:17.335Z,26.362
2022-08-07T05:15:23.650Z,25.708
2022-08-07T05:30:32.688Z,26.366
2022-08-07T05:45:47.008Z,28.021
2022-08-07T06:00:50.999Z,27.363
2022-08-07T06:15:53.018Z,28.574
2022-08-07T06:30:55.917Z,25.423
2022-08-07T06:46:00.820Z,24.077
2022-08-07T07:01:03.137Z,23.558
2022-08-07T07:16:06.142Z,24.728
2022-08-07T07:31:07.965Z,23.833
2022-08-07T07:46:39.931Z,24.098
2022-08-07T08:02:02.128Z,23.943
2022-08-07T08:18:36.834Z,24.072
2022-08-07T08:33:39.003Z,24.043
2022-08-07T08:48:45.614Z,24.662
2022-08-07T09:03:55.200Z,31.656
2022-08-07T09:18:58.835Z,30.275
2022-08-07T09:34:00.853Z,26.916
2022-08-07T09:50:01.221Z,34.402
2022-08-07T10:05:38.663Z,30.356
2022-08-07T10:21:03.283Z,28.955
2022-08-07T10:36:29.344Z,28.884
2022-08-07T10:51:57.359Z,33.855
2022-08-07T11:07:15.066Z,37.835
2022-08-07T11:22:59.002Z,29.446
2022-08-07T11:38:10.401Z,31.024
2022-08-07T11:53:14.857Z,31.733
2022-08-07T12:08:25.692Z,34.054
2022-08-07T12:24:05.069Z,32.067
2022-08-07T12:39:41.884Z,32.137
2022-08-07T12:54:55.059Z,32.73
2022-08-07T13:10:28.434Z,35.085
2022-08-07T13:25:41.667Z,33.527
2022-08-07T13:40:43.921Z,29.768
2022-08-07T13:55:54.359Z,28.79
2022-08-07T14:11:01.913Z,28.635
2022-08-07T14:26:28.079Z,28.838
2022-08-07T14:41:33.952Z,28.644
2022-08-07T14:57:22.919Z,29.733
2022-08-07T15:13:11.368Z,28.247
2022-08-07T15:28:31.155Z,28.443
2022-08-07T15:43:55.637Z,28.126
2022-08-07T15:58:59.066Z,28.102
2022-08-07T16:14:02.905Z,27.933
2022-08-07T16:30:06.825Z,27.724
2022-08-07T16:45:15.121Z,27.547
2022-08-07T17:00:33.314Z,27.509
2022-08-07T17:15:44.158Z,27.031
2022-08-07T17:30:58.486Z,26.535
2022-08-07T17:46:01.134Z,26.392
2022-08-07T18:01:03.516Z,27.045
2022-08-07T18:16:31.118Z,27.12
2022-08-07T18:31:40.424Z,27.088
2022-08-07T18:46:43.293Z,26.74
2022-08-07T19:02:18.366Z,27.111
2022-08-07T19:18:04.048Z,26.938
2022-08-07T19:33:12.862Z,26.539
2022-08-07T19:48:18.911Z,26.447
2022-08-07T20:03:34.053Z,26.202
2022-08-07T20:18:38.157Z,26.176
2022-08-07T20:33:42.540Z,26.303
2022-08-07T20:49:54.636Z,26.082
2022-08-07T21:05:04.629Z,26.05
2022-08-07T21:20:16.245Z,25.88
2022-08-07T21:35:34.611Z,26.015
2022-08-07T21:51:06.489Z,26.307
2022-08-07T22:06:30.345Z,26.397
2022-08-07T22:22:04.882Z,26.968
2022-08-07T22:37:13.077Z,26.315
2022-08-07T22:52:19.567Z,26.355
2022-08-07T23:07:42.107Z,26.053
2022-08-07T23:22:45.185Z,25.972
2022-08-07T23:38:00.993Z,25.783
2022-08-07T23:53:06.168Z,25.094
